Time;durP1;ratioP1;P1;durP2;ratioP2;P2;SDS_P1;SDS_P2;PMS_P1;PMS_P2;Temp;Humidity;BMP_temperature;BMP_pressure;BME280_temperature;BME280_humidity;BME280_pressure;Samples;Min_cycle;Max_cycle;Signal;HPM_P1;HPM_P2
2021/01/27 00:00:52;;;;;;;33.15;17.45;;;;;;;-0.23;74.33;98726.36;123500;1105;65080;-85
2021/01/27 00:03:19;;;;;;;36.77;18.20;;;;;;;-0.22;74.09;98717.57;123553;1102;65461;-84
2021/01/27 00:05:49;;;;;;;35.33;17.60;;;;;;;-0.20;73.54;98718.37;123682;1105;65090;-85
2021/01/27 00:08:16;;;;;;;32.07;17.43;;;;;;;-0.20;74.53;98718.37;123511;1105;65030;-84
2021/01/27 00:10:42;;;;;;;34.13;19.17;;;;;;;-0.19;74.22;98716.59;123506;1105;64917;-86
2021/01/27 00:13:13;;;;;;;31.67;17.33;;;;;;;-0.19;73.57;98722.73;123855;1106;65027;-84
2021/01/27 00:15:42;;;;;;;34.07;16.87;;;;;;;-0.19;74.49;98722.73;123452;1105;64985;-86
2021/01/27 00:18:12;;;;;;;32.93;17.30;;;;;;;-0.18;74.79;98718.34;123465;1102;64937;-85
2021/01/27 00:20:39;;;;;;;33.65;16.95;;;;;;;-0.18;74.81;98710.47;123536;1102;64937;-84
2021/01/27 00:23:07;;;;;;;29.10;15.90;;;;;;;-0.18;73.13;98720.96;123314;1105;65333;-88
2021/01/27 00:25:35;;;;;;;31.27;17.10;;;;;;;-0.19;74.31;98714.86;123556;1105;65041;-83
2021/01/27 00:28:04;;;;;;;29.75;17.00;;;;;;;-0.18;74.13;98719.19;123624;1106;64949;-86
2021/01/27 00:30:38;;;;;;;30.63;16.97;;;;;;;-0.18;74.82;98713.94;123623;1105;64930;-87
2021/01/27 00:33:07;;;;;;;30.72;16.97;;;;;;;-0.18;74.26;98715.72;123470;1105;65081;-86
2021/01/27 00:35:36;;;;;;;35.37;17.63;;;;;;;-0.20;73.84;98720.99;123552;1105;64892;-84
2021/01/27 00:38:12;;;;;;;27.20;15.63;;;;;;;-0.22;73.81;98714.95;123617;1102;64914;-87
2021/01/27 00:40:39;;;;;;;27.00;13.97;;;;;;;-0.23;74.08;98717.63;124260;1102;64901;-85
2021/01/27 00:43:06;;;;;;;29.83;15.60;;;;;;;-0.24;74.60;98721.17;123472;1105;64885;-88
2021/01/27 00:45:32;;;;;;;24.50;13.77;;;;;;;-0.28;73.80;98721.26;123595;1104;65055;-87
2021/01/27 00:47:59;;;;;;;27.13;14.83;;;;;;;-0.30;73.66;98711.73;123630;1102;64921;-85
2021/01/27 00:50:26;;;;;;;22.50;12.90;;;;;;;-0.29;73.64;98726.56;123484;1105;64978;-89
2021/01/27 00:52:53;;;;;;;26.00;14.13;;;;;;;-0.29;73.38;98721.31;124262;1105;64883;-83
2021/01/27 00:55:26;;;;;;;26.97;13.67;;;;;;;-0.28;74.93;98723.88;123512;1105;65285;-87
2021/01/27 00:57:54;;;;;;;25.25;13.30;;;;;;;-0.28;73.57;98721.26;123509;1103;64923;-86
2021/01/27 01:00:32;;;;;;;27.63;11.53;;;;;;;-0.28;74.22;98723.03;123478;1105;64894;-85
2021/01/27 01:02:59;;;;;;;23.90;12.95;;;;;;;-0.27;74.00;98716.86;123809;1105;64921;-84
2021/01/27 01:05:30;;;;;;;26.07;13.33;;;;;;;-0.27;73.73;98720.34;123485;1102;65007;-85
2021/01/27 01:07:56;;;;;;;28.27;14.33;;;;;;;-0.26;74.42;98723.82;123508;1102;65322;-84
2021/01/27 01:10:34;;;;;;;24.27;12.57;;;;;;;-0.25;74.17;98728.19;123677;1102;64969;-86
2021/01/27 01:13:04;;;;;;;32.30;13.73;;;;;;;-0.24;73.40;98729.89;123848;1101;64908;-84
2021/01/27 01:15:30;;;;;;;22.50;12.43;;;;;;;-0.25;74.23;98722.94;123514;1102;64924;-85
2021/01/27 01:17:57;;;;;;;21.30;11.65;;;;;;;-0.28;73.47;98718.63;124280;1102;64958;-87
2021/01/27 01:20:24;;;;;;;21.50;11.40;;;;;;;-0.29;73.75;98726.56;123841;1102;65030;-84
2021/01/27 01:22:53;;;;;;;24.43;13.33;;;;;;;-0.29;73.53;98721.31;123563;1102;65317;-85
2021/01/27 01:25:22;;;;;;;21.90;11.83;;;;;;;-0.31;73.69;98718.75;123531;1102;64976;-83
2021/01/27 01:27:49;;;;;;;22.83;12.00;;;;;;;-0.29;73.47;98729.19;123653;1102;64896;-83
2021/01/27 01:30:21;;;;;;;22.23;12.20;;;;;;;-0.27;73.74;98730.84;123542;1102;64911;-86
2021/01/27 01:32:47;;;;;;;21.45;11.95;;;;;;;-0.26;74.23;98729.07;123505;1102;64870;-87
2021/01/27 01:35:17;;;;;;;23.30;11.47;;;;;;;-0.25;73.03;98727.30;123640;1102;64956;-83
2021/01/27 01:37:44;;;;;;;19.90;9.70;;;;;;;-0.25;73.60;98725.56;123573;1102;65022;-84
2021/01/27 01:40:16;;;;;;;26.60;12.37;;;;;;;-0.23;74.34;98733.38;123518;1102;64872;-86
2021/01/27 01:42:42;;;;;;;22.47;11.93;;;;;;;-0.23;74.55;98725.50;123583;1102;64954;-85
2021/01/27 01:45:28;;;;;;;21.63;10.77;;;;;;;-0.22;73.20;98732.46;123482;1102;64898;-86
2021/01/27 01:48:00;;;;;;;25.05;13.00;;;;;;;-0.24;73.99;98734.29;123865;1102;65083;-86
2021/01/27 01:50:28;;;;;;;29.25;12.10;;;;;;;-0.22;74.52;98737.71;123577;1105;64921;-85
2021/01/27 01:52:56;;;;;;;23.97;12.10;;;;;;;-0.23;73.94;98736.00;123956;1102;64969;-88
2021/01/27 01:55:23;;;;;;;20.60;11.33;;;;;;;-0.22;74.12;98735.09;123545;1102;64975;-86
2021/01/27 01:57:53;;;;;;;24.03;11.83;;;;;;;-0.23;74.23;98738.63;123801;1102;64978;-83
2021/01/27 02:00:22;;;;;;;23.13;11.13;;;;;;;-0.22;73.96;98742.95;123467;1105;64914;-84
2021/01/27 02:02:50;;;;;;;20.70;10.35;;;;;;;-0.22;73.36;98740.34;123589;1102;64882;-84
2021/01/27 02:05:19;;;;;;;18.40;8.63;;;;;;;-0.22;74.01;98733.31;123452;1105;64914;-86
2021/01/27 02:07:46;;;;;;;29.23;11.83;;;;;;;-0.21;73.66;98736.80;123571;1102;64994;-85
2021/01/27 02:10:15;;;;;;;17.53;10.20;;;;;;;-0.20;74.32;98738.50;123840;1102;64998;-88
2021/01/27 02:13:01;;;;;;;21.93;10.67;;;;;;;-0.22;73.46;98735.94;123857;1102;65128;-88
2021/01/27 02:15:54;;;;;;;19.30;10.30;;;;;;;-0.21;73.66;98739.42;123844;1102;64908;-84
2021/01/27 02:18:22;;;;;;;16.93;9.27;;;;;;;-0.22;73.64;98742.95;123483;1103;65004;-87
2021/01/27 02:21:00;;;;;;;17.37;9.50;;;;;;;-0.23;74.24;98741.25;123876;1102;64895;-83
2021/01/27 02:23:56;;;;;;;20.60;10.47;;;;;;;-0.23;73.27;98746.50;124410;1102;64895;-88
2021/01/27 02:26:54;;;;;;;22.07;10.15;;;;;;;-0.26;73.23;98742.19;123653;1102;64994;-86
2021/01/27 02:29:54;;;;;;;22.87;9.23;;;;;;;-0.27;74.13;98738.71;123957;1102;64886;-82
2021/01/27 02:32:35;;;;;;;18.37;9.67;;;;;;;-0.27;73.45;98743.95;123472;1103;64840;-86
2021/01/27 02:35:05;;;;;;;15.73;7.70;;;;;;;-0.28;74.53;98742.25;123861;1102;64969;-86
2021/01/27 02:37:35;;;;;;;14.87;8.77;;;;;;;-0.26;74.52;98742.19;123674;1102;64838;-83
2021/01/27 02:40:15;;;;;;;17.93;8.57;;;;;;;-0.28;73.27;98744.88;123465;1105;64985;-88
2021/01/27 02:42:50;;;;;;;13.57;7.93;;;;;;;-0.28;73.83;98747.50;123496;1105;65004;-87
2021/01/27 02:45:29;;;;;;;12.73;7.00;;;;;;;-0.28;74.16;98749.27;123543;1102;65003;-87
2021/01/27 02:48:16;;;;;;;15.73;9.30;;;;;;;-0.30;74.27;98738.83;124084;1102;65295;-84
2021/01/27 02:50:58;;;;;;;17.60;8.93;;;;;;;-0.31;74.05;98744.14;123489;1105;64959;-86
2021/01/27 02:53:31;;;;;;;16.30;8.55;;;;;;;-0.32;74.41;98743.28;123513;1105;64934;-85
2021/01/27 02:56:10;;;;;;;15.13;7.87;;;;;;;-0.33;74.47;98746.78;123546;1102;65023;-84
2021/01/27 02:58:45;;;;;;;18.97;9.00;;;;;;;-0.32;74.47;98745.02;123494;1102;64978;-85
2021/01/27 03:01:26;;;;;;;16.33;8.70;;;;;;;-0.33;73.26;98741.53;123908;1102;64873;-86
2021/01/27 03:04:01;;;;;;;17.40;7.87;;;;;;;-0.34;74.30;98744.22;123997;1102;64985;-87
2021/01/27 03:06:28;;;;;;;15.77;8.67;;;;;;;-0.36;73.61;98741.66;123966;1101;64955;-84
2021/01/27 03:09:06;;;;;;;17.67;8.33;;;;;;;-0.38;73.29;98751.35;123990;1101;64921;-87
2021/01/27 03:11:34;;;;;;;17.10;8.60;;;;;;;-0.40;74.22;98747.90;124026;1102;64911;-85
2021/01/27 03:14:02;;;;;;;21.37;9.30;;;;;;;-0.40;73.64;98760.16;123889;1102;65001;-84
2021/01/27 03:16:44;;;;;;;20.40;9.20;;;;;;;-0.40;73.28;98755.77;124033;1102;64892;-84
2021/01/27 03:19:21;;;;;;;16.30;8.77;;;;;;;-0.42;74.31;98754.97;123905;1102;64895;-87
2021/01/27 03:21:53;;;;;;;18.77;9.03;;;;;;;-0.43;73.40;98752.41;123940;1102;65090;-89
2021/01/27 03:24:22;;;;;;;16.57;8.20;;;;;;;-0.43;73.34;98758.51;123892;1102;64928;-85
2021/01/27 03:26:55;;;;;;;13.77;7.40;;;;;;;-0.42;73.22;98757.59;123959;1102;64943;-85
2021/01/27 03:29:44;;;;;;;12.63;5.80;;;;;;;-0.42;73.42;98768.09;123910;1102;64834;-86
2021/01/27 03:32:44;;;;;;;10.60;4.47;;;;;;;-0.42;73.99;98757.59;124131;1102;65088;-86
2021/01/27 03:35:38;;;;;;;11.75;5.90;;;;;;;-0.42;73.33;98768.09;123916;1102;64947;-85
2021/01/27 03:38:15;;;;;;;14.83;6.67;;;;;;;-0.43;74.31;98768.14;123900;1102;65059;-84
2021/01/27 03:40:45;;;;;;;14.40;6.90;;;;;;;-0.46;73.18;98770.85;123911;1102;64950;-86
2021/01/27 03:43:20;;;;;;;14.07;7.07;;;;;;;-0.48;73.14;98765.66;124021;1102;64917;-83
2021/01/27 03:45:51;;;;;;;14.90;6.53;;;;;;;-0.48;73.87;98768.28;123938;1102;65081;-86
2021/01/27 03:48:33;;;;;;;15.00;6.60;;;;;;;-0.47;73.87;98766.52;123940;1102;65292;-89
2021/01/27 03:51:01;;;;;;;14.40;7.53;;;;;;;-0.46;72.94;98769.08;123864;1102;64898;-84
2021/01/27 03:53:30;;;;;;;16.40;7.40;;;;;;;-0.43;73.20;98763.75;123889;1102;64931;-89
2021/01/27 03:56:11;;;;;;;17.15;7.45;;;;;;;-0.42;73.03;98761.98;123939;1099;64927;-84
2021/01/27 03:58:42;;;;;;;16.50;6.87;;;;;;;-0.42;73.62;98775.10;123879;1102;64963;-86
2021/01/27 04:01:15;;;;;;;10.70;5.57;;;;;;;-0.42;73.79;98775.95;124414;1102;64949;-84
2021/01/27 04:03:42;;;;;;;10.87;5.80;;;;;;;-0.41;73.99;98779.44;123888;1102;65339;-87
2021/01/27 04:06:09;;;;;;;13.70;6.10;;;;;;;-0.40;72.63;98779.38;123902;1100;65001;-84
2021/01/27 04:08:37;;;;;;;9.10;4.15;;;;;;;-0.40;73.44;98781.15;123897;1102;65371;-86
2021/01/27 04:11:05;;;;;;;7.17;4.80;;;;;;;-0.40;73.32;98787.25;123837;1099;65129;-87
2021/01/27 04:13:32;;;;;;;6.87;3.83;;;;;;;-0.43;72.13;98781.27;124146;1102;64953;-84
2021/01/27 04:15:59;;;;;;;10.30;4.50;;;;;;;-0.46;72.37;98778.72;123937;1102;64953;-84
2021/01/27 04:18:27;;;;;;;11.30;5.03;;;;;;;-0.49;72.71;98786.70;124115;1102;64918;-86
2021/01/27 04:20:54;;;;;;;7.60;3.50;;;;;;;-0.49;72.37;98776.21;123801;1102;64844;-83
2021/01/27 04:23:20;;;;;;;7.70;3.93;;;;;;;-0.48;72.69;98767.43;123893;1102;65378;-85
2021/01/27 04:25:47;;;;;;;9.77;4.87;;;;;;;-0.48;72.50;98760.41;123841;1102;64784;-84
2021/01/27 04:28:14;;;;;;;9.15;4.45;;;;;;;-0.47;72.76;98775.24;123895;1102;64872;-86
2021/01/27 04:30:41;;;;;;;7.07;4.57;;;;;;;-0.45;72.67;98780.44;123880;1102;65355;-85
2021/01/27 04:33:10;;;;;;;10.20;4.37;;;;;;;-0.44;73.01;98776.93;124096;1102;65377;-84
2021/01/27 04:35:39;;;;;;;12.10;4.80;;;;;;;-0.43;71.84;98776.88;123677;1102;65119;-86
2021/01/27 04:38:08;;;;;;;8.05;4.15;;;;;;;-0.42;73.10;98785.59;123894;1102;64841;-84
2021/01/27 04:40:43;;;;;;;8.40;4.45;;;;;;;-0.41;72.79;98780.30;123883;1102;64915;-88
2021/01/27 04:43:21;;;;;;;8.00;4.60;;;;;;;-0.41;72.21;98767.17;123855;1102;64978;-84
2021/01/27 04:45:58;;;;;;;7.23;3.67;;;;;;;-0.40;73.25;98776.75;123924;1099;64911;-87
2021/01/27 04:48:39;;;;;;;9.23;3.53;;;;;;;-0.39;72.92;98778.47;123972;1102;64885;-87
2021/01/27 04:51:13;;;;;;;12.50;5.07;;;;;;;-0.38;72.24;98782.84;124055;1102;65075;-83
2021/01/27 04:53:50;;;;;;;12.63;4.73;;;;;;;-0.36;73.18;98774.91;124308;1099;64891;-85
2021/01/27 04:56:17;;;;;;;15.40;6.45;;;;;;;-0.36;73.25;98767.89;123887;1102;65374;-86
2021/01/27 04:59:06;;;;;;;10.53;5.17;;;;;;;-0.34;72.48;98771.31;124076;1099;64898;-82
2021/01/27 05:02:12;;;;;;;8.10;4.17;;;;;;;-0.30;72.16;98777.33;124115;1102;65033;-86
2021/01/27 05:04:57;;;;;;;;;;;;;;;-0.28;72.06;98781.61;123858;1099;64896;-84
2021/01/27 05:08:09;;;;;;;8.20;4.03;;;;;;;-0.29;72.27;98779.90;124391;1098;64937;-82
2021/01/27 05:10:42;;;;;;;8.87;4.93;;;;;;;-0.28;72.76;98772.88;123892;1099;64841;-84
2021/01/27 05:13:32;;;;;;;9.70;4.60;;;;;;;-0.30;73.21;98778.19;123902;1099;64882;-83
2021/01/27 05:16:02;;;;;;;10.37;5.43;;;;;;;-0.31;72.59;98776.48;123856;1102;65100;-85
2021/01/27 05:18:28;;;;;;;10.37;5.63;;;;;;;-0.31;72.25;98775.63;124295;1102;64904;-87
2021/01/27 05:20:55;;;;;;;9.57;5.77;;;;;;;-0.30;73.23;98770.31;123873;1102;64969;-84
2021/01/27 05:23:25;;;;;;;13.47;7.03;;;;;;;-0.31;73.39;98773.85;123830;1100;64912;-83
2021/01/27 05:26:03;;;;;;;11.50;6.60;;;;;;;-0.32;73.11;98772.14;123865;1102;64947;-85
2021/01/27 05:28:37;;;;;;;15.40;6.23;;;;;;;;;;123829;1102;65078;-85
2021/01/27 05:31:04;;;;;;;14.13;7.40;;;;;;;-0.33;73.20;98778.27;123880;1102;64870;-84
2021/01/27 05:33:51;;;;;;;15.20;6.77;;;;;;;-0.33;73.12;98769.55;123872;1102;64861;-84
2021/01/27 05:36:28;;;;;;;11.97;6.33;;;;;;;-0.32;73.61;98777.39;123917;1102;64978;-88
2021/01/27 05:39:13;;;;;;;11.73;6.43;;;;;;;-0.32;72.79;98779.13;123881;1101;64888;-86
2021/01/27 05:41:40;;;;;;;16.30;7.37;;;;;;;-0.32;72.75;98774.77;123948;1102;65104;-84
2021/01/27 05:44:25;;;;;;;14.97;7.63;;;;;;;-0.31;72.98;98771.23;123903;1102;65024;-84
2021/01/27 05:46:52;;;;;;;;;;;;;;;-0.31;73.49;98770.38;124207;1099;66465;-85
2021/01/27 05:49:27;;;;;;;13.23;6.47;;;;;;;-0.30;73.76;98779.95;123906;1102;64891;-85
2021/01/27 05:52:10;;;;;;;14.55;5.65;;;;;;;-0.30;74.01;98778.19;123915;1102;65017;-88
2021/01/27 05:54:37;;;;;;;15.63;7.77;;;;;;;-0.27;74.11;98778.07;123820;1102;64921;-85
2021/01/27 05:57:11;;;;;;;16.13;7.40;;;;;;;-0.25;73.54;98779.78;124039;1102;64946;-84
2021/01/27 05:59:38;;;;;;;13.70;7.70;;;;;;;-0.23;73.53;98781.47;123882;1102;64899;-85
2021/01/27 06:02:06;;;;;;;13.73;7.23;;;;;;;-0.25;73.99;98783.30;123892;1102;64946;-84
2021/01/27 06:04:34;;;;;;;18.23;8.40;;;;;;;-0.24;73.99;98786.77;124202;1103;64854;-85
2021/01/27 06:07:08;;;;;;;11.47;6.37;;;;;;;-0.20;73.08;98796.23;123870;1102;65119;-84
2021/01/27 06:09:42;;;;;;;14.20;7.60;;;;;;;-0.19;73.71;98795.33;123889;1100;64908;-85
2021/01/27 06:12:19;;;;;;;18.90;9.00;;;;;;;-0.17;72.82;98794.39;123894;1102;64883;-86
2021/01/27 06:15:08;;;;;;;19.70;8.50;;;;;;;-0.14;73.67;98786.40;124164;1100;64983;-85
2021/01/27 06:17:49;;;;;;;13.70;7.05;;;;;;;-0.10;72.83;98784.55;123874;1102;64924;-85
2021/01/27 06:20:24;;;;;;;43.00;16.50;;;;;;;-0.07;73.64;98789.67;123860;1099;64972;-84
2021/01/27 06:23:02;;;;;;;25.03;11.73;;;;;;;-0.06;72.61;98791.42;123923;1099;64921;-86
2021/01/27 06:25:51;;;;;;;14.60;7.80;;;;;;;-0.03;72.45;98794.78;123813;1102;64969;-86
2021/01/27 06:28:56;;;;;;;15.40;7.67;;;;;;;0.01;73.51;98802.57;123808;1102;64905;-87
2021/01/27 06:31:23;;;;;;;19.45;9.90;;;;;;;0.02;72.45;98799.89;124082;1101;64892;-87
2021/01/27 06:34:24;;;;;;;16.70;8.43;;;;;;;0.03;73.38;98798.11;123894;1099;65058;-85
2021/01/27 06:37:17;;;;;;;12.23;7.17;;;;;;;0.05;72.27;98798.91;123894;1102;64893;-83
2021/01/27 06:40:20;;;;;;;14.83;7.43;;;;;;;0.07;72.53;98797.97;123900;1101;64921;-88
2021/01/27 06:43:07;;;;;;;32.20;16.00;;;;;;;0.09;72.86;98800.54;123774;1102;64917;-83
2021/01/27 06:45:50;;;;;;;18.50;8.70;;;;;;;0.09;72.66;98797.91;123699;1102;64972;-87
2021/01/27 06:48:40;;;;;;;18.97;9.33;;;;;;;0.09;72.22;98796.14;123776;1102;65078;-87
2021/01/27 06:51:22;;;;;;;16.30;6.77;;;;;;;0.11;72.80;98794.31;123813;1102;64965;-84
2021/01/27 06:54:26;;;;;;;13.83;6.73;;;;;;;0.12;71.62;98801.27;123857;1102;64933;-87
2021/01/27 06:57:12;;;;;;;18.93;6.90;;;;;;;0.14;72.43;98794.22;123893;1102;64857;-87
2021/01/27 07:00:15;;;;;;;14.07;5.77;;;;;;;0.18;72.73;98800.20;124031;1102;64975;-85
2021/01/27 07:02:53;;;;;;;12.37;6.83;;;;;;;0.15;72.67;98790.68;123928;1102;65103;-85
2021/01/27 07:05:47;;;;;;;11.97;6.50;;;;;;;0.15;72.43;98789.83;124123;1102;64867;-84
2021/01/27 07:08:20;;;;;;;37.07;15.80;;;;;;;0.15;72.04;98795.94;124005;1102;64927;-86
2021/01/27 07:11:02;;;;;;;20.37;9.43;;;;;;;0.16;72.56;98802.89;124140;1102;64899;-85
2021/01/27 07:13:47;;;;;;;12.13;6.37;;;;;;;0.17;72.38;98799.35;124029;1100;64947;-86
2021/01/27 07:16:32;;;;;;;14.63;6.03;;;;;;;0.18;72.26;98801.06;123961;1102;64892;-83
2021/01/27 07:19:20;;;;;;;13.73;5.77;;;;;;;0.19;71.96;98792.30;124018;1102;64899;-86
2021/01/27 07:21:57;;;;;;;28.63;12.50;;;;;;;0.24;72.35;98794.75;123997;1102;64898;-86
2021/01/27 07:24:33;;;;;;;52.53;21.23;;;;;;;0.29;72.28;98794.59;123932;1100;64928;-83
2021/01/27 07:27:07;;;;;;;42.67;21.13;;;;;;;0.32;72.67;98800.62;123918;1102;64943;-84
2021/01/27 07:30:05;;;;;;;29.23;14.67;;;;;;;0.36;72.15;98799.58;124000;1102;65122;-86
2021/01/27 07:32:40;;;;;;;20.33;9.67;;;;;;;0.41;71.66;98808.16;123927;1102;64931;-85
2021/01/27 07:35:25;;;;;;;30.83;12.87;;;;;;;0.41;71.74;98799.42;123901;1102;64885;-85
2021/01/27 07:38:01;;;;;;;19.42;9.53;;;;;;;0.43;71.70;98795.82;124214;1099;64995;-85
2021/01/27 07:40:53;;;;;;;30.63;11.97;;;;;;;0.47;72.39;98791.33;123984;1102;64969;-84
2021/01/27 07:43:38;;;;;;;20.27;9.50;;;;;;;0.51;71.86;98798.20;123904;1102;66017;-86
2021/01/27 07:46:05;;;;;;;22.58;10.25;;;;;;;0.54;71.92;98790.20;123871;1102;64898;-84
2021/01/27 07:49:00;;;;;;;18.50;8.23;;;;;;;0.59;71.86;98796.15;124051;1101;64912;-87
2021/01/27 07:51:38;;;;;;;24.50;9.27;;;;;;;0.66;71.94;98797.64;123897;1099;64876;-85
2021/01/27 07:54:23;;;;;;;21.10;9.73;;;;;;;0.73;72.22;98793.88;123910;1102;65081;-84
2021/01/27 07:56:52;;;;;;;20.80;8.47;;;;;;;0.80;72.23;98797.13;123974;1102;64875;-84
2021/01/27 07:59:29;;;;;;;20.57;8.40;;;;;;;0.85;71.90;98794.34;123956;1099;64876;-84
2021/01/27 08:02:17;;;;;;;16.93;8.30;;;;;;;0.92;71.70;98798.45;123848;1102;64975;-84
2021/01/27 08:04:49;;;;;;;24.00;9.15;;;;;;;0.95;71.70;98798.33;123740;1102;65358;-86
2021/01/27 08:07:42;;;;;;;17.67;8.47;;;;;;;0.98;71.40;98800.86;123866;1102;64979;-84
2021/01/27 08:10:15;;;;;;;14.90;7.95;;;;;;;1.01;71.41;98798.09;123892;1102;64999;-83
2021/01/27 08:12:55;;;;;;;20.60;9.27;;;;;;;1.02;71.67;98800.70;123861;1102;64876;-85
2021/01/27 08:15:25;;;;;;;16.03;7.57;;;;;;;1.07;71.86;98813.65;123801;1102;64975;-86
2021/01/27 08:17:51;;;;;;;23.87;11.70;;;;;;;1.11;71.91;98810.00;123908;1102;64940;-86
2021/01/27 08:20:26;;;;;;;18.97;9.87;;;;;;;1.12;71.59;98811.71;124002;1102;64923;-85
2021/01/27 08:22:58;;;;;;;28.07;16.40;;;;;;;1.19;71.84;98812.33;123909;1102;64951;-87
2021/01/27 08:25:55;;;;;;;26.83;15.07;;;;;;;1.24;71.73;98813.88;124061;1100;64915;-87
2021/01/27 08:28:37;;;;;;;16.70;8.90;;;;;;;1.29;71.83;98817.19;123985;1102;64889;-83
2021/01/27 08:31:10;;;;;;;13.20;7.30;;;;;;;1.33;71.13;98817.91;124178;1099;64892;-83
2021/01/27 08:33:46;;;;;;;17.40;9.85;;;;;;;1.34;71.27;98819.66;123899;1102;64954;-88
2021/01/27 08:36:12;;;;;;;15.87;9.73;;;;;;;1.39;71.48;98819.45;123854;1102;65154;-83
2021/01/27 08:38:52;;;;;;;24.03;12.37;;;;;;;1.46;72.17;98823.56;123925;1100;64882;-88
2021/01/27 08:41:56;;;;;;;18.27;8.50;;;;;;;1.54;71.42;98826.77;124136;1102;64892;-85
2021/01/27 08:44:28;;;;;;;21.60;8.95;;;;;;;1.61;71.61;98822.98;124144;1102;64898;-84
2021/01/27 08:47:02;;;;;;;19.77;9.70;;;;;;;1.65;71.18;98827.19;124065;1102;64917;-87
2021/01/27 08:49:35;;;;;;;20.32;8.83;;;;;;;1.66;70.68;98828.92;123867;1100;64911;-87
2021/01/27 08:52:11;;;;;;;22.87;10.43;;;;;;;1.66;71.41;98838.60;124156;1099;64943;-84
2021/01/27 08:54:37;;;;;;;30.33;14.57;;;;;;;1.72;71.75;98836.58;124062;1099;65101;-83
2021/01/27 08:57:32;;;;;;;23.25;9.90;;;;;;;1.79;71.69;98832.78;124104;1099;65003;-83
2021/01/27 09:00:18;;;;;;;31.53;15.53;;;;;;;1.83;71.99;98826.45;124103;1099;64860;-86
2021/01/27 09:02:46;;;;;;;16.35;10.05;;;;;;;1.93;71.98;98831.36;124194;1102;64944;-83
2021/01/27 09:05:19;;;;;;;19.60;10.57;;;;;;;1.94;71.64;98835.70;124051;1099;64939;-86
2021/01/27 09:07:56;;;;;;;15.33;9.13;;;;;;;1.93;70.40;98823.46;124058;1102;65077;-85
2021/01/27 09:10:32;;;;;;;22.20;11.87;;;;;;;1.87;71.61;98838.59;124062;1101;64979;-82
2021/01/27 09:13:28;;;;;;;18.40;9.20;;;;;;;1.93;71.81;98832.22;124035;1102;64927;-82
2021/01/27 09:16:06;;;;;;;18.60;9.70;;;;;;;2.03;71.31;98830.91;124323;1099;65062;-83
2021/01/27 09:18:35;;;;;;;12.77;9.00;;;;;;;2.07;71.51;98829.02;124068;1102;64917;-82
2021/01/27 09:21:14;;;;;;;15.23;8.10;;;;;;;2.03;70.57;98833.53;124030;1102;64959;-82
2021/01/27 09:23:44;;;;;;;22.87;8.50;;;;;;;2.06;70.69;98829.94;123997;1102;65042;-83
2021/01/27 09:26:30;;;;;;;18.30;8.47;;;;;;;2.10;71.13;98836.77;123999;1102;64941;-82
2021/01/27 09:29:05;;;;;;;;;;;;;;;2.19;71.32;98846.09;123879;1099;64918;-82
2021/01/27 09:31:31;;;;;;;18.40;8.70;;;;;;;2.26;71.36;98845.77;123955;1102;65183;-83
2021/01/27 09:33:59;;;;;;;18.17;8.83;;;;;;;2.31;71.09;98849.08;124290;1099;64937;-82
2021/01/27 09:36:28;;;;;;;15.87;8.97;;;;;;;2.31;71.12;98849.08;123948;1102;64920;-83
2021/01/27 09:38:57;;;;;;;16.23;8.33;;;;;;;2.28;70.90;98851.83;123994;1102;64886;-86
2021/01/27 09:41:29;;;;;;;15.63;9.23;;;;;;;2.30;71.00;98850.00;123880;1102;65013;-83
2021/01/27 09:43:58;;;;;;;15.40;8.60;;;;;;;2.31;70.97;98842.95;124208;1102;65023;-83
2021/01/27 09:46:32;;;;;;;16.23;9.10;;;;;;;2.39;70.57;98846.97;124046;1102;65061;-86
2021/01/27 09:49:04;;;;;;;18.53;9.20;;;;;;;2.31;70.82;98837.68;123899;1102;64936;-87
2021/01/27 09:51:32;;;;;;;18.33;9.03;;;;;;;2.39;71.30;98841.70;123970;1102;64863;-83
2021/01/27 09:54:00;;;;;;;14.03;8.03;;;;;;;2.55;71.21;98838.42;123884;1102;65090;-85
2021/01/27 09:56:29;;;;;;;14.03;7.53;;;;;;;2.46;70.28;98831.75;124027;1099;64993;-82
2021/01/27 09:58:58;;;;;;;14.05;8.15;;;;;;;2.38;70.73;98834.72;124026;1102;65291;-82
2021/01/27 10:01:30;;;;;;;14.50;7.60;;;;;;;2.69;70.90;98830.77;123943;1102;64944;-85
2021/01/27 10:04:10;;;;;;;15.05;7.00;;;;;;;2.85;71.02;98823.88;124036;1102;64982;-82
2021/01/27 10:06:49;;;;;;;13.70;7.83;;;;;;;3.08;70.96;98827.28;123854;1102;65298;-82
2021/01/27 10:09:47;;;;;;;16.70;8.75;;;;;;;3.15;70.49;98818.16;123955;1100;65001;-84
2021/01/27 10:12:22;;;;;;;11.70;7.25;;;;;;;3.05;69.06;98822.13;123921;1102;64897;-83
2021/01/27 10:14:59;;;;;;;16.93;7.53;;;;;;;3.00;69.94;98821.50;124126;1099;64946;-83
2021/01/27 10:17:30;;;;;;;13.55;6.70;;;;;;;3.07;69.93;98822.93;123970;1102;64927;-84
2021/01/27 10:20:03;;;;;;;11.47;7.07;;;;;;;2.95;69.85;98819.06;123956;1102;65084;-87
2021/01/27 10:22:35;;;;;;;16.73;7.03;;;;;;;3.02;70.51;98817.00;123983;1102;64880;-83
2021/01/27 10:25:23;;;;;;;21.50;9.13;;;;;;;3.07;70.07;98815.88;123862;1102;65027;-83
2021/01/27 10:28:11;;;;;;;12.97;7.07;;;;;;;3.05;70.00;98814.20;123880;1102;64921;-83
2021/01/27 10:30:45;;;;;;;19.73;7.90;;;;;;;3.07;70.37;98812.37;124010;1102;64907;-82
2021/01/27 10:33:30;;;;;;;15.03;7.43;;;;;;;2.94;69.40;98809.44;123899;1100;65052;-82
2021/01/27 10:35:57;;;;;;;;;;;;;;;2.89;70.12;98812.27;124010;1099;64988;-83
2021/01/27 10:38:25;;;;;;;18.10;8.60;;;;;;;2.96;69.91;98805.80;124019;1102;64978;-86
2021/01/27 10:41:20;;;;;;;17.15;7.95;;;;;;;3.09;69.49;98803.45;124056;1102;64895;-84
2021/01/27 10:43:48;;;;;;;16.23;6.93;;;;;;;3.22;70.50;98801.96;123922;1099;64901;-86
2021/01/27 10:46:27;;;;;;;13.85;5.05;;;;;;;3.26;68.99;98800.05;123995;1102;64939;-83
2021/01/27 10:48:53;;;;;;;17.43;7.50;;;;;;;3.51;70.48;98802.39;124021;1102;64969;-82
2021/01/27 10:51:21;;;;;;;12.17;6.47;;;;;;;3.76;70.19;98804.72;123992;1102;64924;-84
2021/01/27 10:53:47;;;;;;;16.40;8.00;;;;;;;3.99;70.52;98791.22;123913;1102;64867;-86
2021/01/27 10:56:17;;;;;;;14.73;6.80;;;;;;;3.95;69.34;98792.32;123988;1101;65122;-84
2021/01/27 10:58:43;;;;;;;12.33;7.00;;;;;;;3.99;69.38;98788.58;123975;1102;64922;-84
2021/01/27 11:01:10;;;;;;;13.53;6.47;;;;;;;3.96;69.38;98794.03;123969;1099;64995;-87
2021/01/27 11:03:37;;;;;;;16.63;6.57;;;;;;;4.06;69.34;98791.77;123853;1099;64895;-84
2021/01/27 11:06:04;;;;;;;13.15;6.95;;;;;;;4.10;69.54;98795.13;123874;1102;64918;-82
2021/01/27 11:08:33;;;;;;;13.43;5.47;;;;;;;4.06;69.80;98795.27;124050;1102;64892;-84
2021/01/27 11:11:03;;;;;;;21.60;10.40;;;;;;;4.16;69.87;98797.47;123871;1102;64915;-82
2021/01/27 11:13:32;;;;;;;16.53;8.50;;;;;;;4.19;69.40;98792.86;123829;1102;65352;-84
2021/01/27 11:16:00;;;;;;;18.27;6.33;;;;;;;4.22;69.32;98791.88;123807;1102;65049;-86
2021/01/27 11:18:27;;;;;;;13.37;6.20;;;;;;;4.22;69.05;98786.59;124050;1102;64978;-88
2021/01/27 11:20:54;;;;;;;19.63;9.07;;;;;;;4.22;69.29;98786.59;123872;1102;64917;-84
2021/01/27 11:23:21;;;;;;;17.43;7.83;;;;;;;4.26;68.98;98783.72;123860;1102;65295;-83
2021/01/27 11:25:49;;;;;;;16.13;6.60;;;;;;;4.29;68.86;98782.70;123876;1102;64920;-86
2021/01/27 11:28:17;;;;;;;9.63;5.03;;;;;;;4.34;68.49;98775.39;124073;1102;64937;-84
2021/01/27 11:30:44;;;;;;;12.20;5.40;;;;;;;4.32;67.30;98774.59;123993;1102;64966;-82
2021/01/27 11:33:11;;;;;;;12.17;6.53;;;;;;;4.17;68.44;98775.38;123887;1101;64971;-82
2021/01/27 11:35:38;;;;;;;25.23;6.10;;;;;;;4.26;69.21;98765.22;123808;1102;65088;-84
2021/01/27 11:38:05;;;;;;;16.53;7.23;;;;;;;4.32;68.71;98764.88;123998;1102;64927;-83
2021/01/27 11:40:32;;;;;;;10.97;5.87;;;;;;;4.44;68.13;98768.67;123881;1102;65221;-84
2021/01/27 11:42:58;;;;;;;16.00;6.33;;;;;;;4.38;68.89;98763.70;123913;1102;65075;-84
2021/01/27 11:45:25;;;;;;;6.60;4.00;;;;;;;4.25;68.72;98763.48;123863;1102;64928;-83
2021/01/27 11:47:52;;;;;;;17.10;6.87;;;;;;;4.07;67.55;98769.69;123953;1102;65010;-84
2021/01/27 11:50:22;;;;;;;16.40;7.03;;;;;;;3.88;68.30;98769.78;124008;1099;64915;-89
2021/01/27 11:52:50;;;;;;;18.13;7.53;;;;;;;3.77;68.61;98772.94;123971;1102;64984;-84
2021/01/27 11:55:20;;;;;;;25.10;9.60;;;;;;;3.77;68.69;98770.30;123977;1099;65295;-88
2021/01/27 11:57:47;;;;;;;22.50;9.20;;;;;;;3.73;68.34;98765.23;123961;1102;65001;-86